Time;durP1;ratioP1;P1;durP2;ratioP2;P2;SDS_P1;SDS_P2;PMS_P1;PMS_P2;Temp;Humidity;BMP_temperature;BMP_pressure;BME280_temperature;BME280_humidity;BME280_pressure;Samples;Min_cycle;Max_cycle;Signal;HPM_P1;HPM_P2
2022/02/04 00:08:01;;;;;;;9.13;6.65;;;;;14.40;100974.00;;;;5008671;28;20637;-83
2022/02/04 00:21:46;;;;;;;11.15;7.90;;;;;14.40;100965.00;;;;5015714;28;20218;-83
2022/02/04 00:24:14;;;;;;;10.65;7.22;;;;;14.40;100970.00;;;;5028423;28;20203;-83
2022/02/04 00:26:48;;;;;;;10.98;7.10;;;;;14.40;100970.00;;;;5022710;28;20189;-83
2022/02/04 00:29:22;;;;;;;9.27;6.60;;;;;14.50;100957.00;;;;5018994;28;20215;-83
2022/02/04 00:31:54;;;;;;;10.25;7.18;;;;;14.50;100959.00;;;;5010061;28;20251;-83
2022/02/04 00:34:23;;;;;;;8.23;6.50;;;;;14.50;100963.00;;;;5008921;28;20197;-82
2022/02/04 00:37:02;;;;;;;10.13;7.18;;;;;14.50;100953.00;;;;5024980;28;20196;-83
2022/02/04 00:39:35;;;;;;;8.70;6.45;;;;;14.50;100953.00;;;;5015484;28;20255;-82
2022/02/04 00:42:07;;;;;;;10.75;7.78;;;;;14.50;100944.00;;;;5021683;28;20193;-83
2022/02/04 00:44:37;;;;;;;10.48;7.82;;;;;14.50;100947.00;;;;5028668;28;20243;-83
2022/02/04 00:47:11;;;;;;;10.25;7.05;;;;;14.50;100953.00;;;;5028013;28;20203;-83
2022/02/04 00:49:53;;;;;;;10.75;7.60;;;;;14.50;100950.00;;;;5030578;28;20196;-83
2022/02/04 00:52:27;;;;;;;10.20;6.85;;;;;14.50;100944.00;;;;5022984;28;20196;-82
2022/02/04 00:54:59;;;;;;;11.27;7.00;;;;;14.50;100940.00;;;;5021750;28;20722;-82
2022/02/04 00:57:44;;;;;;;11.85;7.85;;;;;14.50;100939.00;;;;5023920;28;20200;-83
2022/02/04 01:27:46;;;;;;;13.80;8.77;;;;;14.30;100927.00;;;;5024542;28;20656;-82
2022/02/04 01:30:19;;;;;;;11.95;9.18;;;;;14.30;100919.00;;;;5028944;28;20278;-83
2022/02/04 01:32:46;;;;;;;14.23;10.10;;;;;14.30;100923.00;;;;5030364;28;20205;-82
2022/02/04 01:35:15;;;;;;;14.70;9.80;;;;;14.30;100924.00;;;;5031256;28;20216;-83
2022/02/04 01:37:42;;;;;;;14.13;9.80;;;;;14.30;100915.00;;;;5030992;28;20220;-82
2022/02/04 01:40:10;;;;;;;13.02;9.50;;;;;14.30;100916.00;;;;5030263;28;20267;-83
2022/02/04 01:42:37;;;;;;;13.98;9.65;;;;;14.30;100926.00;;;;5030055;28;20200;-83
2022/02/04 01:45:05;;;;;;;12.60;8.95;;;;;14.30;100931.00;;;;5025540;28;20203;-83
2022/02/04 01:47:33;;;;;;;13.55;9.00;;;;;14.30;100930.00;;;;5029773;28;20216;-83
2022/02/04 01:50:00;;;;;;;13.23;8.77;;;;;14.30;100930.00;;;;5030547;28;20258;-83
2022/02/04 01:52:29;;;;;;;11.38;8.68;;;;;14.30;100928.00;;;;5029873;28;20200;-83
2022/02/04 01:54:56;;;;;;;12.02;8.82;;;;;14.30;100927.00;;;;5028271;28;20212;-83
2022/02/04 01:57:23;;;;;;;13.48;9.52;;;;;14.30;100929.00;;;;5030749;28;20192;-83
2022/02/04 01:59:50;;;;;;;13.48;9.70;;;;;14.30;100923.00;;;;5029581;28;20235;-83
2022/02/04 02:02:18;;;;;;;10.95;7.55;;;;;14.30;100924.00;;;;5021064;28;20200;-83
2022/02/04 02:04:45;;;;;;;11.40;8.43;;;;;14.30;100920.00;;;;5011023;28;20212;-82
2022/02/04 02:07:17;;;;;;;9.32;7.50;;;;;14.30;100908.00;;;;5018490;28;20602;-83
2022/02/04 02:09:55;;;;;;;10.93;7.00;;;;;14.30;100906.00;;;;5019498;28;20207;-82
2022/02/04 02:12:25;;;;;;;9.95;6.95;;;;;14.30;100899.00;;;;5026194;28;20202;-83
2022/02/04 02:15:03;;;;;;;10.68;7.28;;;;;14.30;100903.00;;;;5028602;28;20202;-82
2022/02/04 02:34:47;;;;;;;9.05;6.28;;;;;14.20;100875.00;;;;5015433;28;20858;-82
2022/02/04 02:43:10;;;;;;;7.32;5.93;;;;;14.30;100865.00;;;;5024344;28;20334;-82
2022/02/04 02:45:57;;;;;;;8.55;6.72;;;;;14.30;100854.00;;;;5018591;28;20203;-83
2022/02/04 02:48:40;;;;;;;8.77;6.60;;;;;14.30;100858.00;;;;5028606;28;20232;-83
2022/02/04 02:51:44;;;;;;;8.50;6.90;;;;;14.20;100855.00;;;;5015332;28;20202;-82
2022/02/04 02:57:11;;;;;;;7.88;5.95;;;;;14.20;100851.00;;;;5016877;28;20199;-82
2022/02/04 02:59:46;;;;;;;8.63;6.35;;;;;14.20;100853.00;;;;5025067;28;20785;-83
2022/02/04 03:02:14;;;;;;;7.88;5.53;;;;;14.20;100851.00;;;;5026679;28;20286;-83
2022/02/04 03:04:41;;;;;;;6.78;5.13;;;;;14.20;100845.00;;;;5018164;28;20192;-83
2022/02/04 03:07:10;;;;;;;9.13;5.93;;;;;14.20;100838.00;;;;5028380;28;20196;-83
2022/02/04 03:09:38;;;;;;;7.78;5.43;;;;;14.20;100832.00;;;;5019145;28;20201;-83
2022/02/04 03:12:08;;;;;;;8.65;6.60;;;;;14.20;100821.00;;;;5017377;28;20579;-83
2022/02/04 03:14:35;;;;;;;7.20;5.60;;;;;14.20;100827.00;;;;5023945;28;20566;-83
2022/02/04 03:17:06;;;;;;;7.60;5.38;;;;;14.20;100824.00;;;;5027631;28;20638;-83
2022/02/04 03:19:33;;;;;;;9.65;6.50;;;;;14.20;100832.00;;;;5021066;28;20702;-83
2022/02/04 03:22:06;;;;;;;9.48;6.47;;;;;14.20;100829.00;;;;5021505;28;20369;-82
2022/02/04 03:24:34;;;;;;;7.53;5.90;;;;;14.20;100836.00;;;;5018143;28;20204;-83
2022/02/04 03:27:07;;;;;;;8.38;6.07;;;;;14.20;100825.00;;;;5024236;28;20200;-82
2022/02/04 03:29:51;;;;;;;8.43;6.20;;;;;14.20;100824.00;;;;5025178;28;20222;-83
2022/02/04 03:32:21;;;;;;;7.18;5.60;;;;;14.20;100815.00;;;;5016173;28;20702;-83
2022/02/04 03:34:48;;;;;;;7.45;5.55;;;;;14.20;100824.00;;;;5011135;28;20204;-83
2022/02/04 03:37:15;;;;;;;6.55;5.13;;;;;14.20;100815.00;;;;5027762;28;20188;-82
2022/02/04 03:39:43;;;;;;;9.73;5.90;;;;;14.20;100821.00;;;;5017810;28;20233;-82
2022/02/04 03:42:11;;;;;;;9.50;6.10;;;;;14.20;100811.00;;;;5019314;28;20203;-81
2022/02/04 03:44:39;;;;;;;10.43;6.15;;;;;14.20;100809.00;;;;5016967;28;20209;-83
2022/02/04 03:47:07;;;;;;;7.28;5.38;;;;;14.20;100807.00;;;;5021597;28;20185;-82
2022/02/04 03:49:34;;;;;;;6.95;5.25;;;;;14.20;100811.00;;;;5023415;28;20201;-83
2022/02/04 03:52:01;;;;;;;9.00;5.90;;;;;14.20;100803.00;;;;5022002;28;20205;-82
2022/02/04 03:54:28;;;;;;;7.55;5.45;;;;;14.20;100797.00;;;;5008605;28;20248;-83
2022/02/04 03:56:55;;;;;;;9.00;5.28;;;;;14.20;100800.00;;;;5023738;28;20199;-83
2022/02/04 03:59:25;;;;;;;6.90;4.70;;;;;14.20;100805.00;;;;5025506;28;20242;-82
2022/02/04 04:01:53;;;;;;;5.00;4.32;;;;;14.20;100800.00;;;;5021630;28;20231;-83
2022/02/04 04:04:21;;;;;;;6.63;4.88;;;;;14.20;100799.00;;;;5017100;28;20211;-83
2022/02/04 04:06:49;;;;;;;6.38;4.70;;;;;14.20;100792.00;;;;5026181;28;20663;-83
2022/02/04 04:09:16;;;;;;;5.97;3.88;;;;;14.20;100791.00;;;;5020636;28;20208;-83
2022/02/04 04:11:46;;;;;;;6.40;3.70;;;;;14.20;100788.00;;;;5025656;28;20203;-84
2022/02/04 04:14:16;;;;;;;4.55;3.28;;;;;14.10;100793.00;;;;5018171;28;20196;-83
2022/02/04 04:16:44;;;;;;;4.97;3.40;;;;;14.10;100789.00;;;;5016100;28;20266;-82
2022/02/04 04:19:12;;;;;;;4.78;3.58;;;;;14.10;100789.00;;;;5009984;28;20233;-83
2022/02/04 04:21:40;;;;;;;4.43;3.25;;;;;14.20;100797.00;;;;5023058;28;20219;-83
2022/02/04 04:24:07;;;;;;;4.75;3.05;;;;;14.20;100800.00;;;;5021454;28;20539;-83
2022/02/04 04:26:35;;;;;;;4.43;3.38;;;;;14.20;100799.00;;;;5019965;28;20736;-83
2022/02/04 04:29:02;;;;;;;5.57;3.38;;;;;14.20;100805.00;;;;5021080;28;20242;-82
2022/02/04 04:31:29;;;;;;;3.35;2.85;;;;;14.20;100807.00;;;;5026850;28;20577;-83
2022/02/04 04:33:57;;;;;;;4.05;2.67;;;;;14.10;100812.00;;;;5025866;28;20185;-83
2022/02/04 04:36:25;;;;;;;3.58;2.92;;;;;14.10;100810.00;;;;5018847;28;20196;-82
2022/02/04 04:38:59;;;;;;;5.30;2.95;;;;;14.10;100812.00;;;;5013186;28;20224;-82
2022/02/04 04:41:35;;;;;;;3.50;2.63;;;;;14.10;100809.00;;;;5017523;28;20566;-83
2022/02/04 04:44:31;;;;;;;2.63;2.28;;;;;14.10;100799.00;;;;5017552;28;20192;-83
2022/02/04 05:26:13;;;;;;;2.50;1.83;;;;;14.10;100756.00;;;;5020978;28;20214;-83
2022/02/04 05:28:54;;;;;;;3.10;2.45;;;;;14.10;100769.00;;;;5024930;28;20776;-82
2022/02/04 05:31:21;;;;;;;5.15;2.60;;;;;14.10;100763.00;;;;5022065;28;20586;-83
2022/02/04 05:33:49;;;;;;;3.17;2.53;;;;;14.10;100761.00;;;;5024525;28;20200;-83
2022/02/04 05:36:16;;;;;;;4.43;2.70;;;;;14.10;100759.00;;;;5025918;28;20244;-83
2022/02/04 05:38:44;;;;;;;3.70;2.83;;;;;14.10;100756.00;;;;5019735;28;20220;-82
2022/02/04 05:41:18;;;;;;;4.78;2.90;;;;;14.10;100747.00;;;;5023340;28;20769;-83
2022/02/04 05:43:47;;;;;;;3.78;2.78;;;;;14.10;100740.00;;;;5019842;28;20230;-82
2022/02/04 05:46:18;;;;;;;4.22;2.80;;;;;14.20;100744.00;;;;5020828;28;20203;-83
2022/02/04 05:48:49;;;;;;;3.63;2.60;;;;;14.20;100736.00;;;;5019472;28;20192;-82
2022/02/04 05:51:30;;;;;;;3.75;2.60;;;;;14.20;100725.00;;;;5022402;28;20205;-83
2022/02/04 05:53:59;;;;;;;2.45;2.15;;;;;14.20;100718.00;;;;5024436;28;20203;-83
2022/02/04 05:56:36;;;;;;;2.95;2.53;;;;;14.20;100710.00;;;;5021946;28;20207;-80
2022/02/04 05:59:19;;;;;;;3.28;2.00;;;;;14.20;100711.00;;;;5024009;28;20607;-81
2022/02/04 06:01:56;;;;;;;3.30;2.67;;;;;14.20;100709.00;;;;5023420;28;20216;-80
2022/02/04 06:04:35;;;;;;;3.40;2.92;;;;;14.20;100708.00;;;;5014629;28;20193;-80
2022/02/04 06:07:17;;;;;;;4.00;2.97;;;;;14.20;100699.00;;;;5019272;28;20189;-81
2022/02/04 06:22:06;;;;;;;2.78;2.05;;;;;14.20;100702.00;;;;5028955;28;20211;-80
2022/02/04 06:23:31;;;;;;;2.70;2.15;;;;;14.10;100697.00;;;;5014102;28;20676;-83
2022/02/04 06:26:00;;;;;;;3.40;2.42;;;;;14.10;100710.00;;;;5025528;28;20263;-83
2022/02/04 06:28:28;;;;;;;4.85;2.28;;;;;14.10;100709.00;;;;5020146;28;20217;-83
2022/02/04 06:30:56;;;;;;;3.20;2.20;;;;;14.20;100698.00;;;;5015203;28;20200;-84
2022/02/04 06:33:23;;;;;;;2.83;2.03;;;;;14.20;100695.00;;;;5027137;28;20208;-83
2022/02/04 06:35:50;;;;;;;3.42;2.17;;;;;14.20;100696.00;;;;5016441;28;20204;-83
2022/02/04 06:38:18;;;;;;;3.95;2.05;;;;;14.20;100694.00;;;;5023659;28;20207;-83
2022/02/04 06:40:45;;;;;;;3.08;2.30;;;;;14.20;100684.00;;;;5028747;28;20228;-81
2022/02/04 06:43:12;;;;;;;2.35;1.98;;;;;14.20;100690.00;;;;5012931;28;20197;-82
2022/02/04 06:45:41;;;;;;;2.90;2.10;;;;;14.10;100696.00;;;;5025580;28;20251;-83
2022/02/04 06:48:08;;;;;;;3.92;1.75;;;;;14.10;100680.00;;;;5024818;28;20205;-80
2022/02/04 06:50:36;;;;;;;3.70;2.05;;;;;14.10;100689.00;;;;5025841;28;20192;-81
2022/02/04 06:53:04;;;;;;;1.75;1.52;;;;;14.10;100683.00;;;;5016399;28;20205;-81
2022/02/04 06:55:32;;;;;;;4.45;2.10;;;;;14.10;100693.00;;;;5027738;28;20274;-81
2022/02/04 06:58:02;;;;;;;3.35;2.05;;;;;14.10;100697.00;;;;5028870;28;20207;-84
2022/02/04 07:00:29;;;;;;;3.72;1.95;;;;;14.10;100696.00;;;;5028479;28;20196;-81
2022/02/04 07:02:58;;;;;;;2.22;1.63;;;;;14.10;100699.00;;;;5027519;28;20287;-81
2022/02/04 07:05:26;;;;;;;3.00;2.15;;;;;14.10;100690.00;;;;5029630;28;20200;-82
2022/02/04 07:08:02;;;;;;;2.72;2.25;;;;;14.20;100687.00;;;;5020610;28;20197;-82
2022/02/04 07:10:37;;;;;;;2.55;2.17;;;;;14.20;100690.00;;;;5028497;28;20274;-80
2022/02/04 07:13:13;;;;;;;3.10;2.00;;;;;14.20;100678.00;;;;5027821;28;20192;-81
2022/02/04 07:15:51;;;;;;;2.55;2.00;;;;;14.20;100685.00;;;;5028887;28;20570;-81
2022/02/04 07:21:02;;;;;;;3.15;2.72;;;;;14.20;100677.00;;;;5028547;28;20224;-81
2022/02/04 07:23:30;;;;;;;4.93;2.67;;;;;14.20;100680.00;;;;5029043;28;20200;-81
2022/02/04 07:25:57;;;;;;;3.42;2.97;;;;;14.20;100675.00;;;;5012230;28;20299;-80
2022/02/04 07:28:24;;;;;;;2.78;2.45;;;;;14.20;100671.00;;;;5028435;28;20608;-80
2022/02/04 07:30:53;;;;;;;3.13;2.83;;;;;14.30;100664.00;;;;5027879;28;20207;-81
2022/02/04 07:33:26;;;;;;;3.90;3.30;;;;;14.20;100664.00;;;;5028068;28;20204;-81
2022/02/04 07:40:53;;;;;;;3.83;2.80;;;;;14.30;100660.00;;;;5022807;28;20321;-82
2022/02/04 07:41:40;;;;;;;2.70;2.45;;;;;14.30;100660.00;;;;5015830;28;20227;-82
2022/02/04 07:44:08;;;;;;;4.05;2.30;;;;;14.30;100665.00;;;;5017991;28;20200;-82
2022/02/04 07:46:35;;;;;;;4.15;3.28;;;;;14.30;100660.00;;;;5018511;28;20204;-81
2022/02/04 07:49:04;;;;;;;3.08;2.72;;;;;14.30;100664.00;;;;5020150;28;20216;-80
2022/02/04 07:51:31;;;;;;;3.58;3.08;;;;;14.30;100674.00;;;;5023186;28;20201;-81
2022/02/04 07:53:59;;;;;;;5.00;3.58;;;;;14.30;100652.00;;;;5026951;28;20215;-81
2022/02/04 07:56:27;;;;;;;4.28;3.30;;;;;14.30;100655.00;;;;5029882;28;20220;-81
2022/02/04 07:58:58;;;;;;;4.30;3.90;;;;;14.30;100649.00;;;;5027755;28;20215;-81
2022/02/04 08:01:28;;;;;;;5.15;3.90;;;;;14.30;100643.00;;;;5024873;28;20221;-81
2022/02/04 08:04:02;;;;;;;5.40;4.13;;;;;14.30;100652.00;;;;5025937;28;20719;-81
2022/02/04 08:06:35;;;;;;;5.53;4.40;;;;;14.30;100648.00;;;;5025757;28;20199;-81
2022/02/04 08:09:13;;;;;;;4.65;3.88;;;;;14.30;100652.00;;;;5023310;28;20204;-81
2022/02/04 08:11:59;;;;;;;4.82;3.67;;;;;14.40;100650.00;;;;5022863;28;20204;-81
2022/02/04 08:14:45;;;;;;;4.45;3.65;;;;;14.40;100654.00;;;;5023020;28;20195;-81
2022/02/04 08:22:58;;;;;;;4.20;3.80;;;;;14.30;100637.00;;;;4984907;28;20302;-80
2022/02/04 08:31:35;;;;;;;4.60;4.20;;;;;14.40;100635.00;;;;4981301;28;20256;-82
2022/02/04 08:54:02;;;;;;;5.68;5.07;;;;;14.40;100615.00;;;;4987515;28;20284;-80
2022/02/04 08:56:39;;;;;;;5.85;4.90;;;;;14.40;100614.00;;;;4985209;28;20266;-81
2022/02/04 08:59:14;;;;;;;5.47;4.97;;;;;14.40;100607.00;;;;4986926;28;20208;-80
2022/02/04 09:01:48;;;;;;;5.65;4.57;;;;;14.50;100608.00;;;;4988638;28;20246;-81
2022/02/04 09:04:18;;;;;;;5.03;4.47;;;;;14.60;100602.00;;;;4995138;28;20679;-81
2022/02/04 09:06:50;;;;;;;4.88;4.38;;;;;14.60;100592.00;;;;4989997;28;20201;-79
2022/02/04 09:09:29;;;;;;;4.57;4.10;;;;;14.60;100598.00;;;;4991307;28;20209;-84
2022/02/04 09:12:19;;;;;;;4.75;4.10;;;;;14.70;100595.00;;;;4983280;28;20197;-79
2022/02/04 09:17:59;;;;;;;4.28;3.88;;;;;14.80;100587.00;;;;4993802;28;20259;-79
2022/02/04 09:20:30;;;;;;;4.15;3.72;;;;;14.80;100588.00;;;;5025561;28;20192;-79
2022/02/04 09:22:57;;;;;;;3.95;3.53;;;;;14.90;100574.00;;;;5028151;28;20805;-80
2022/02/04 09:25:26;;;;;;;3.47;3.17;;;;;14.90;100572.00;;;;5030323;28;20199;-78
2022/02/04 09:27:56;;;;;;;3.05;2.75;;;;;14.90;100567.00;;;;5029241;28;20192;-78
2022/02/04 09:30:25;;;;;;;6.28;3.35;;;;;15.00;100575.00;;;;5019076;28;20231;-79
2022/02/04 09:32:52;;;;;;;3.45;3.15;;;;;15.00;100566.00;;;;5029764;28;20204;-79
2022/02/04 09:35:22;;;;;;;3.60;3.28;;;;;15.00;100560.00;;;;5030337;28;20211;-79
2022/02/04 09:37:50;;;;;;;4.40;4.00;;;;;15.00;100548.00;;;;5029290;28;20283;-80
2022/02/04 09:40:19;;;;;;;4.03;3.65;;;;;15.00;100534.00;;;;5030062;28;20370;-78
2022/02/04 09:42:47;;;;;;;3.38;3.08;;;;;15.00;100544.00;;;;5028860;28;20228;-80
2022/02/04 09:45:18;;;;;;;4.95;3.83;;;;;15.00;100548.00;;;;5030287;28;20196;-79
2022/02/04 09:47:49;;;;;;;3.67;3.13;;;;;15.10;100543.00;;;;5029614;28;20207;-81
2022/02/04 09:50:22;;;;;;;4.32;3.92;;;;;15.10;100544.00;;;;5029315;28;20208;-81
2022/02/04 10:13:21;;;;;;;4.15;3.78;;;;;15.00;100536.00;;;;4972619;28;20423;-81
2022/02/04 10:16:04;;;;;;;3.28;2.97;;;;;15.10;100525.00;;;;5006696;28;20639;-81
2022/02/04 10:18:40;;;;;;;4.60;3.17;;;;;15.10;100524.00;;;;5010284;28;20228;-81
2022/02/04 10:21:09;;;;;;;3.38;3.08;;;;;15.10;100522.00;;;;5021212;28;20666;-82
2022/02/04 10:23:51;;;;;;;4.25;2.72;;;;;15.00;100526.00;;;;5029304;28;20228;-81
2022/02/04 10:26:20;;;;;;;3.22;2.72;;;;;15.10;100512.00;;;;5030150;28;20204;-81
2022/02/04 10:28:48;;;;;;;2.58;2.38;;;;;15.20;100521.00;;;;5029447;28;20765;-80
2022/02/04 10:31:20;;;;;;;2.35;2.15;;;;;15.20;100510.00;;;;5027645;28;20204;-81
2022/02/04 10:33:58;;;;;;;2.80;2.47;;;;;15.20;100509.00;;;;5009414;28;20228;-81
2022/02/04 10:36:48;;;;;;;2.30;2.10;;;;;15.30;100507.00;;;;5015360;28;20216;-82
2022/02/04 10:39:46;;;;;;;2.92;2.58;;;;;15.30;100501.00;;;;5029593;28;20211;-82
2022/02/04 10:42:27;;;;;;;2.95;2.75;;;;;15.40;100502.00;;;;5029464;28;20720;-83
2022/02/04 10:45:20;;;;;;;3.53;3.22;;;;;15.40;100495.00;;;;5029642;28;20204;-81
2022/02/04 11:02:09;;;;;;;3.35;3.05;;;;;15.50;100458.00;;;;5029160;28;20258;-82
2022/02/04 11:04:43;;;;;;;3.42;3.13;;;;;15.50;100459.00;;;;5028577;28;20212;-81
2022/02/04 11:07:28;;;;;;;3.42;3.13;;;;;15.60;100453.00;;;;5029711;28;20278;-80
2022/02/04 11:10:09;;;;;;;2.40;2.20;;;;;15.60;100437.00;;;;5024462;28;20215;-80
2022/02/04 11:43:49;;;;;;;2.90;2.70;;;;;15.80;100362.00;;;;5025174;28;20231;-82
2022/02/04 11:52:08;;;;;;;3.08;2.67;;;;;15.70;100346.00;;;;4976128;28;20628;-82
2022/02/04 11:54:44;;;;;;;3.38;2.38;;;;;15.60;100365.00;;;;5017104;28;20591;-81
2022/02/04 11:57:21;;;;;;;2.60;2.40;;;;;15.60;100336.00;;;;5012436;28;20192;-81
2022/02/04 11:59:54;;;;;;;2.67;2.35;;;;;15.60;100332.00;;;;5027878;28;20666;-82
2022/02/04 12:02:35;;;;;;;2.75;2.50;;;;;15.50;100319.00;;;;5025864;28;20290;-81
2022/02/04 12:05:42;;;;;;;2.92;2.10;;;;;15.50;100307.00;;;;5023967;28;20208;-80
2022/02/04 12:08:33;;;;;;;2.47;2.17;;;;;15.50;100316.00;;;;5026940;28;20208;-81
2022/02/04 12:11:11;;;;;;;3.13;1.98;;;;;15.60;100309.00;;;;5025620;28;20205;-82
2022/02/04 12:14:13;;;;;;;2.63;2.42;;;;;15.40;100311.00;;;;5021123;28;20234;-82
2022/02/04 12:17:07;;;;;;;2.38;2.05;;;;;15.40;100298.00;;;;5012963;28;20275;-81
2022/02/04 12:19:39;;;;;;;2.22;1.80;;;;;15.40;100302.00;;;;5026891;28;20263;-83
2022/02/04 12:22:08;;;;;;;2.97;2.20;;;;;15.40;100297.00;;;;5026052;28;20224;-82
2022/02/04 12:24:41;;;;;;;2.00;1.77;;;;;15.40;100295.00;;;;5025267;28;20207;-80
2022/02/04 12:27:37;;;;;;;2.38;1.90;;;;;15.30;100291.00;;;;5025080;28;20761;-81
2022/02/04 12:30:35;;;;;;;2.85;1.95;;;;;15.20;100290.00;;;;5016737;28;20219;-82
2022/02/04 12:33:04;;;;;;;2.70;2.40;;;;;15.40;100289.00;;;;5026676;28;20243;-81
2022/02/04 12:35:31;;;;;;;3.47;2.00;;;;;15.30;100277.00;;;;5029093;28;20192;-79
2022/02/04 12:37:58;;;;;;;2.38;2.00;;;;;15.30;100268.00;;;;5027834;28;20679;-80
2022/02/04 12:40:26;;;;;;;1.88;1.67;;;;;15.30;100274.00;;;;5030576;28;20199;-80
2022/02/04 12:42:53;;;;;;;2.08;1.63;;;;;15.30;100255.00;;;;5030647;28;20220;-81
2022/02/04 12:45:21;;;;;;;2.33;1.50;;;;;15.30;100249.00;;;;5021824;28;20553;-82
2022/02/04 12:47:53;;;;;;;3.53;1.80;;;;;15.30;100256.00;;;;5027564;28;20212;-79
2022/02/04 12:50:25;;;;;;;2.88;1.95;;;;;15.30;100249.00;;;;5016221;28;20280;-81
2022/02/04 12:52:52;;;;;;;2.10;1.50;;;;;15.30;100244.00;;;;5026580;28;20695;-79
2022/02/04 12:55:25;;;;;;;3.13;2.03;;;;;15.30;100233.00;;;;5031615;28;20208;-81
2022/02/04 12:58:10;;;;;;;1.80;1.50;;;;;15.30;100234.00;;;;5030069;28;20677;-80
2022/02/04 13:07:28;;;;;;;2.10;1.73;;;;;15.20;100222.00;;;;5026241;28;20239;-81
2022/02/04 13:12:05;;;;;;;2.45;1.63;;;;;15.10;100217.00;;;;5029273;28;20211;-83
2022/02/04 13:14:32;;;;;;;3.15;1.80;;;;;15.10;100215.00;;;;5031323;28;20207;-81
2022/02/04 13:16:59;;;;;;;2.35;1.42;;;;;15.10;100215.00;;;;5024760;28;20207;-81
2022/02/04 13:19:28;;;;;;;1.98;1.58;;;;;15.10;100214.00;;;;5026881;28;20672;-82
2022/02/04 13:21:55;;;;;;;2.85;1.77;;;;;15.10;100213.00;;;;5018508;28;20189;-82
2022/02/04 13:24:23;;;;;;;2.00;1.60;;;;;15.10;100210.00;;;;5029712;28;20224;-82
2022/02/04 13:26:51;;;;;;;1.88;1.42;;;;;15.00;100198.00;;;;5030766;28;20200;-82
2022/02/04 13:29:25;;;;;;;3.47;1.25;;;;;15.00;100191.00;;;;5025769;28;20227;-81
2022/02/04 13:31:52;;;;;;;2.05;1.30;;;;;15.00;100186.00;;;;5028498;28;20686;-81
2022/02/04 13:34:26;;;;;;;2.55;1.92;;;;;15.00;100179.00;;;;5024600;28;20220;-81
2022/02/04 13:37:02;;;;;;;2.25;1.52;;;;;14.90;100169.00;;;;5025231;28;20196;-81
2022/02/04 13:39:40;;;;;;;3.00;1.77;;;;;14.90;100166.00;;;;5025212;28;20192;-80
2022/02/04 13:42:14;;;;;;;2.17;1.65;;;;;14.80;100152.00;;;;5027244;28;20192;-81
2022/02/04 13:44:49;;;;;;;1.92;1.70;;;;;14.80;100145.00;;;;5025011;28;20534;-81
2022/02/04 13:47:24;;;;;;;7.68;2.22;;;;;14.80;100143.00;;;;5019539;28;20259;-83
2022/02/04 13:50:08;;;;;;;5.53;2.10;;;;;14.70;100125.00;;;;5022786;28;20188;-81
2022/02/04 13:52:54;;;;;;;2.08;1.80;;;;;14.70;100125.00;;;;5029451;28;20196;-81
2022/02/04 13:55:30;;;;;;;3.45;2.05;;;;;14.70;100112.00;;;;5028677;28;20463;-81
2022/02/04 13:58:23;;;;;;;2.13;1.90;;;;;14.70;100127.00;;;;5026806;28;20210;-80
2022/02/04 14:00:59;;;;;;;3.85;1.73;;;;;14.70;100154.00;;;;5023778;28;20288;-80
2022/02/04 14:03:29;;;;;;;5.00;2.10;;;;;14.60;100231.00;;;;5030354;28;20231;-84
2022/02/04 14:06:02;;;;;;;1.48;1.00;;;;;14.50;100209.00;;;;5024530;28;20197;-82
2022/02/04 14:08:38;;;;;;;1.42;0.82;;;;;14.30;100230.00;;;;5024456;28;20567;-81
2022/02/04 14:11:08;;;;;;;2.08;0.90;;;;;14.20;100240.00;;;;5026889;28;20288;-81
2022/02/04 14:13:35;;;;;;;0.95;0.60;;;;;14.00;100237.00;;;;5016414;28;20212;-79
2022/02/04 14:16:06;;;;;;;2.55;0.70;;;;;13.80;100251.00;;;;5024335;28;20203;-80
2022/02/04 14:18:36;;;;;;;1.13;0.57;;;;;13.70;100249.00;;;;5021817;28;20220;-82
2022/02/04 14:21:04;;;;;;;1.35;0.50;;;;;13.50;100263.00;;;;5024728;28;20230;-81
2022/02/04 14:23:33;;;;;;;0.57;0.30;;;;;13.30;100268.00;;;;5027861;28;20224;-81
2022/02/04 14:26:07;;;;;;;0.47;0.43;;;;;13.20;100279.00;;;;5022975;28;20192;-83
2022/02/04 14:28:41;;;;;;;0.35;0.35;;;;;13.00;100286.00;;;;5021053;28;20302;-82
2022/02/04 14:31:15;;;;;;;0.50;0.20;;;;;12.80;100296.00;;;;5019549;28;20330;-80
2022/02/04 14:36:40;;;;;;;0.52;0.30;;;;;12.50;100317.00;;;;5011625;28;20235;-80
2022/02/04 14:53:05;;;;;;;1.42;0.57;;;;;11.60;100351.00;;;;5011828;28;20250;-83
2022/02/04 14:58:54;;;;;;;0.63;0.13;;;;;11.40;100361.00;;;;5028540;28;20266;-81
2022/02/04 15:01:24;;;;;;;0.20;0.10;;;;;11.30;100372.00;;;;5021583;28;20208;-81
2022/02/04 15:04:01;;;;;;;0.65;0.10;;;;;11.20;100382.00;;;;5025852;28;20259;-81
2022/02/04 15:06:32;;;;;;;0.52;0.20;;;;;11.20;100395.00;;;;5029576;28;20188;-80
2022/02/04 15:09:00;;;;;;;0.70;0.32;;;;;11.20;100411.00;;;;5029172;28;20188;-81
2022/02/04 15:11:32;;;;;;;0.43;0.20;;;;;11.10;100416.00;;;;5029832;28;20258;-80
2022/02/04 15:14:03;;;;;;;0.35;0.20;;;;;11.10;100418.00;;;;5028642;28;20712;-81
2022/02/04 15:16:31;;;;;;;0.77;0.22;;;;;11.10;100427.00;;;;5026692;28;20203;-81
2022/02/04 15:18:58;;;;;;;0.47;0.25;;;;;11.00;100426.00;;;;5022074;28;20229;-80
2022/02/04 15:21:26;;;;;;;0.65;0.28;;;;;11.00;100442.00;;;;5018107;28;20203;-81
2022/02/04 15:23:54;;;;;;;0.80;0.20;;;;;11.00;100456.00;;;;5028838;28;20318;-80
2022/02/04 15:26:26;;;;;;;2.33;0.50;;;;;11.00;100465.00;;;;5028862;28;20684;-81
2022/02/04 15:28:59;;;;;;;1.02;0.65;;;;;11.00;100476.00;;;;5028869;28;20216;-81
2022/02/04 15:31:35;;;;;;;0.45;0.20;;;;;11.00;100485.00;;;;5029512;28;20561;-81
2022/02/04 15:34:03;;;;;;;1.35;0.47;;;;;10.90;100491.00;;;;5028659;28;20219;-81
2022/02/04 15:36:34;;;;;;;1.25;0.52;;;;;10.90;100497.00;;;;5027389;28;20211;-82
2022/02/04 15:39:04;;;;;;;1.48;0.45;;;;;10.90;100513.00;;;;5022810;28;20679;-82
2022/02/04 15:41:33;;;;;;;0.80;0.40;;;;;10.90;100521.00;;;;5018872;28;20196;-83
2022/02/04 15:44:09;;;;;;;1.05;0.40;;;;;10.90;100517.00;;;;5016514;28;20702;-83
2022/02/04 15:46:45;;;;;;;1.23;0.60;;;;;10.90;100530.00;;;;5025747;28;20393;-82
2022/02/04 15:49:32;;;;;;;0.73;0.50;;;;;10.90;100546.00;;;;5009296;28;20199;-84
2022/02/04 15:52:37;;;;;;;0.77;0.55;;;;;10.90;100539.00;;;;5025196;28;20223;-82
2022/02/04 15:57:56;;;;;;;0.70;0.32;;;;;10.90;100557.00;;;;5008160;28;20313;-81
2022/02/04 16:00:52;;;;;;;0.98;0.55;;;;;10.90;100570.00;;;;5026025;28;20215;-81
2022/02/04 16:03:39;;;;;;;1.10;0.52;;;;;10.90;100587.00;;;;5029311;28;20315;-86
2022/02/04 16:06:11;;;;;;;0.60;0.25;;;;;10.90;100606.00;;;;5028375;28;20215;-82
2022/02/04 16:08:38;;;;;;;1.60;0.40;;;;;10.90;100608.00;;;;5019916;28;20311;-82
2022/02/04 16:11:16;;;;;;;0.43;0.25;;;;;10.80;100619.00;;;;5024095;28;20558;-81
2022/02/04 16:13:48;;;;;;;0.63;0.20;;;;;10.80;100614.00;;;;5027442;28;20208;-81
2022/02/04 16:16:25;;;;;;;1.08;0.30;;;;;10.80;100622.00;;;;5024510;28;20581;-83
2022/02/04 16:19:04;;;;;;;0.68;0.30;;;;;10.80;100643.00;;;;5020829;28;20251;-84
2022/02/04 16:21:41;;;;;;;1.40;0.47;;;;;10.80;100639.00;;;;5013260;28;20197;-83
2022/02/04 16:24:35;;;;;;;0.82;0.32;;;;;10.70;100642.00;;;;5012244;28;20240;-81
2022/02/04 16:28:37;;;;;;;0.65;0.38;;;;;10.70;100656.00;;;;5017934;28;20201;-81
2022/02/04 16:29:58;;;;;;;1.15;0.45;;;;;10.70;100657.00;;;;5011093;28;20225;-81
2022/02/04 16:32:28;;;;;;;0.82;0.38;;;;;10.70;100665.00;;;;5012610;28;20203;-82
2022/02/04 16:34:56;;;;;;;1.23;0.70;;;;;10.70;100666.00;;;;5025998;28;20212;-81
2022/02/04 16:37:32;;;;;;;1.25;0.77;;;;;10.70;100668.00;;;;5027819;28;20617;-82
2022/02/04 16:40:04;;;;;;;0.60;0.40;;;;;10.70;100674.00;;;;5022931;28;20199;-82
2022/02/04 16:42:33;;;;;;;2.25;0.80;;;;;10.70;100692.00;;;;5024983;28;20291;-81
2022/02/04 16:45:00;;;;;;;1.45;0.82;;;;;10.70;100694.00;;;;5014204;28;20305;-82
2022/02/04 16:47:29;;;;;;;2.95;0.60;;;;;10.70;100702.00;;;;5013056;28;20188;-82
2022/02/04 16:49:57;;;;;;;1.35;0.80;;;;;10.70;100712.00;;;;5026924;28;20204;-82
2022/02/04 16:52:24;;;;;;;1.92;0.88;;;;;10.70;100721.00;;;;5025364;28;20263;-81
2022/02/04 16:54:51;;;;;;;2.65;0.63;;;;;10.70;100738.00;;;;5020942;28;20201;-81
2022/02/04 16:57:19;;;;;;;2.40;0.73;;;;;10.70;100761.00;;;;5008218;28;20200;-82
2022/02/04 16:59:46;;;;;;;1.73;0.60;;;;;10.70;100752.00;;;;5021971;28;20201;-82